sensor_id;sensor_type;location;lat;lon;timestamp;P1;durP1;ratioP1;P2;durP2;ratioP2
20314;SDS011;10315;50.958;13.080;2023-11-22T00:02:12;31.33;;;12.53;;
20314;SDS011;10315;50.958;13.080;2023-11-22T00:12:15;35.67;;;14.23;;
20314;SDS011;10315;50.958;13.080;2023-11-22T00:22:17;36.13;;;13.70;;
20314;SDS011;10315;50.958;13.080;2023-11-22T00:32:21;32.83;;;13.13;;
20314;SDS011;10315;50.958;13.080;2023-11-22T00:42:22;28.80;;;12.43;;
20314;SDS011;10315;50.958;13.080;2023-11-22T00:52:25;33.47;;;13.27;;
20314;SDS011;10315;50.958;13.080;2023-11-22T01:02:27;32.57;;;12.83;;
20314;SDS011;10315;50.958;13.080;2023-11-22T01:12:30;38.77;;;13.90;;
20314;SDS011;10315;50.958;13.080;2023-11-22T01:22:32;37.07;;;13.93;;
20314;SDS011;10315;50.958;13.080;2023-11-22T01:32:35;35.17;;;13.53;;
20314;SDS011;10315;50.958;13.080;2023-11-22T01:42:37;27.17;;;13.10;;
20314;SDS011;10315;50.958;13.080;2023-11-22T01:52:41;27.67;;;11.63;;
20314;SDS011;10315;50.958;13.080;2023-11-22T02:02:43;30.00;;;12.17;;
20314;SDS011;10315;50.958;13.080;2023-11-22T02:12:46;29.90;;;10.67;;
20314;SDS011;10315;50.958;13.080;2023-11-22T02:22:48;27.27;;;10.87;;
20314;SDS011;10315;50.958;13.080;2023-11-22T02:32:52;26.70;;;9.90;;
20314;SDS011;10315;50.958;13.080;2023-11-22T02:42:54;27.53;;;10.47;;
20314;SDS011;10315;50.958;13.080;2023-11-22T02:52:58;27.13;;;11.27;;
20314;SDS011;10315;50.958;13.080;2023-11-22T03:03:00;28.73;;;11.03;;
20314;SDS011;10315;50.958;13.080;2023-11-22T03:13:05;26.17;;;10.07;;
20314;SDS011;10315;50.958;13.080;2023-11-22T03:23:06;24.00;;;9.60;;
20314;SDS011;10315;50.958;13.080;2023-11-22T03:33:12;23.00;;;9.77;;
20314;SDS011;10315;50.958;13.080;2023-11-22T03:43:14;30.67;;;11.83;;
20314;SDS011;10315;50.958;13.080;2023-11-22T03:53:17;31.97;;;11.70;;
20314;SDS011;10315;50.958;13.080;2023-11-22T04:03:21;31.70;;;11.73;;
20314;SDS011;10315;50.958;13.080;2023-11-22T04:13:24;32.47;;;11.53;;
20314;SDS011;10315;50.958;13.080;2023-11-22T04:23:26;26.00;;;10.30;;
20314;SDS011;10315;50.958;13.080;2023-11-22T04:33:29;25.43;;;11.17;;
20314;SDS011;10315;50.958;13.080;2023-11-22T04:43:30;28.47;;;12.10;;
20314;SDS011;10315;50.958;13.080;2023-11-22T04:53:33;29.00;;;11.67;;
20314;SDS011;10315;50.958;13.080;2023-11-22T05:03:35;30.70;;;12.00;;
20314;SDS011;10315;50.958;13.080;2023-11-22T05:13:39;35.23;;;13.57;;
20314;SDS011;10315;50.958;13.080;2023-11-22T05:23:40;28.57;;;12.67;;
20314;SDS011;10315;50.958;13.080;2023-11-22T05:33:43;37.23;;;14.07;;
20314;SDS011;10315;50.958;13.080;2023-11-22T05:43:45;38.23;;;13.67;;
20314;SDS011;10315;50.958;13.080;2023-11-22T05:53:48;34.83;;;12.30;;
20314;SDS011;10315;50.958;13.080;2023-11-22T06:03:49;32.57;;;12.30;;
20314;SDS011;10315;50.958;13.080;2023-11-22T06:13:52;30.77;;;12.33;;
20314;SDS011;10315;50.958;13.080;2023-11-22T06:23:54;35.53;;;14.23;;
20314;SDS011;10315;50.958;13.080;2023-11-22T06:33:59;31.53;;;12.83;;
20314;SDS011;10315;50.958;13.080;2023-11-22T06:44:01;31.50;;;12.67;;
20314;SDS011;10315;50.958;13.080;2023-11-22T06:54:04;34.53;;;13.60;;
20314;SDS011;10315;50.958;13.080;2023-11-22T07:04:06;33.63;;;13.37;;
20314;SDS011;10315;50.958;13.080;2023-11-22T07:14:09;33.73;;;13.53;;
20314;SDS011;10315;50.958;13.080;2023-11-22T07:24:11;38.00;;;13.33;;
20314;SDS011;10315;50.958;13.080;2023-11-22T07:34:17;36.90;;;14.17;;
20314;SDS011;10315;50.958;13.080;2023-11-22T07:44:18;35.93;;;13.70;;
20314;SDS011;10315;50.958;13.080;2023-11-22T07:54:22;38.83;;;13.87;;
20314;SDS011;10315;50.958;13.080;2023-11-22T08:04:24;39.97;;;14.13;;
20314;SDS011;10315;50.958;13.080;2023-11-22T08:14:28;38.73;;;14.63;;
20314;SDS011;10315;50.958;13.080;2023-11-22T08:24:30;40.83;;;13.53;;
20314;SDS011;10315;50.958;13.080;2023-11-22T08:34:33;40.13;;;14.90;;
20314;SDS011;10315;50.958;13.080;2023-11-22T08:44:35;51.70;;;17.73;;
20314;SDS011;10315;50.958;13.080;2023-11-22T08:54:38;50.23;;;18.00;;
20314;SDS011;10315;50.958;13.080;2023-11-22T09:04:39;50.70;;;19.50;;
20314;SDS011;10315;50.958;13.080;2023-11-22T09:14:43;49.23;;;16.37;;
20314;SDS011;10315;50.958;13.080;2023-11-22T09:24:44;47.17;;;16.73;;
20314;SDS011;10315;50.958;13.080;2023-11-22T09:34:47;48.30;;;18.67;;
20314;SDS011;10315;50.958;13.080;2023-11-22T09:44:49;49.60;;;16.50;;
20314;SDS011;10315;50.958;13.080;2023-11-22T09:54:52;40.97;;;14.83;;
20314;SDS011;10315;50.958;13.080;2023-11-22T10:04:55;43.50;;;15.67;;
20314;SDS011;10315;50.958;13.080;2023-11-22T10:15:01;35.80;;;15.10;;
20314;SDS011;10315;50.958;13.080;2023-11-22T10:25:12;35.50;;;12.97;;
20314;SDS011;10315;50.958;13.080;2023-11-22T10:35:15;28.33;;;11.80;;
20314;SDS011;10315;50.958;13.080;2023-11-22T10:45:17;34.87;;;13.40;;
20314;SDS011;10315;50.958;13.080;2023-11-22T10:55:20;33.23;;;12.63;;
20314;SDS011;10315;50.958;13.080;2023-11-22T11:05:27;26.97;;;11.73;;
20314;SDS011;10315;50.958;13.080;2023-11-22T11:15:33;28.57;;;11.73;;
20314;SDS011;10315;50.958;13.080;2023-11-22T11:25:35;19.63;;;8.67;;
20314;SDS011;10315;50.958;13.080;2023-11-22T11:35:40;19.50;;;9.13;;
20314;SDS011;10315;50.958;13.080;2023-11-22T11:45:45;20.30;;;8.40;;
20314;SDS011;10315;50.958;13.080;2023-11-22T11:55:48;19.47;;;9.50;;
20314;SDS011;10315;50.958;13.080;2023-11-22T12:05:53;19.97;;;9.13;;
20314;SDS011;10315;50.958;13.080;2023-11-22T12:15:56;20.50;;;9.37;;
20314;SDS011;10315;50.958;13.080;2023-11-22T12:25:58;20.53;;;8.70;;
20314;SDS011;10315;50.958;13.080;2023-11-22T12:36:04;17.10;;;7.57;;
20314;SDS011;10315;50.958;13.080;2023-11-22T12:46:06;18.27;;;9.00;;
20314;SDS011;10315;50.958;13.080;2023-11-22T12:56:12;16.47;;;7.80;;
20314;SDS011;10315;50.958;13.080;2023-11-22T13:06:14;15.77;;;7.13;;
20314;SDS011;10315;50.958;13.080;2023-11-22T13:16:19;19.53;;;7.50;;
20314;SDS011;10315;50.958;13.080;2023-11-22T13:26:20;14.87;;;6.87;;
20314;SDS011;10315;50.958;13.080;2023-11-22T13:36:23;21.53;;;9.07;;
20314;SDS011;10315;50.958;13.080;2023-11-22T13:46:25;18.50;;;8.40;;
20314;SDS011;10315;50.958;13.080;2023-11-22T13:56:28;21.00;;;8.73;;
20314;SDS011;10315;50.958;13.080;2023-11-22T14:06:30;25.03;;;10.63;;
20314;SDS011;10315;50.958;13.080;2023-11-22T14:16:33;22.53;;;9.07;;
20314;SDS011;10315;50.958;13.080;2023-11-22T14:26:38;25.17;;;10.30;;
20314;SDS011;10315;50.958;13.080;2023-11-22T14:36:41;22.20;;;11.03;;
20314;SDS011;10315;50.958;13.080;2023-11-22T14:46:45;25.33;;;10.73;;
20314;SDS011;10315;50.958;13.080;2023-11-22T14:56:48;28.43;;;12.83;;
20314;SDS011;10315;50.958;13.080;2023-11-22T15:06:50;34.33;;;14.33;;
20314;SDS011;10315;50.958;13.080;2023-11-22T15:16:53;27.77;;;11.90;;
20314;SDS011;10315;50.958;13.080;2023-11-22T15:26:54;27.90;;;12.77;;
20314;SDS011;10315;50.958;13.080;2023-11-22T15:36:58;28.97;;;12.80;;
20314;SDS011;10315;50.958;13.080;2023-11-22T15:46:59;24.00;;;10.13;;
20314;SDS011;10315;50.958;13.080;2023-11-22T15:57:06;33.20;;;16.43;;
20314;SDS011;10315;50.958;13.080;2023-11-22T16:07:08;35.47;;;13.37;;
20314;SDS011;10315;50.958;13.080;2023-11-22T16:17:11;29.50;;;11.67;;
20314;SDS011;10315;50.958;13.080;2023-11-22T16:27:12;37.37;;;19.00;;
20314;SDS011;10315;50.958;13.080;2023-11-22T16:37:15;44.70;;;19.93;;
20314;SDS011;10315;50.958;13.080;2023-11-22T16:47:18;36.67;;;15.67;;
20314;SDS011;10315;50.958;13.080;2023-11-22T16:57:21;49.97;;;18.77;;
20314;SDS011;10315;50.958;13.080;2023-11-22T17:07:23;53.30;;;19.40;;
20314;SDS011;10315;50.958;13.080;2023-11-22T17:17:26;49.40;;;16.93;;
20314;SDS011;10315;50.958;13.080;2023-11-22T17:27:28;40.83;;;15.60;;
20314;SDS011;10315;50.958;13.080;2023-11-22T17:37:31;35.10;;;13.03;;
20314;SDS011;10315;50.958;13.080;2023-11-22T17:47:33;39.10;;;15.00;;
20314;SDS011;10315;50.958;13.080;2023-11-22T17:57:38;38.43;;;14.40;;
20314;SDS011;10315;50.958;13.080;2023-11-22T18:07:40;31.20;;;11.43;;
20314;SDS011;10315;50.958;13.080;2023-11-22T18:17:43;28.27;;;11.07;;
20314;SDS011;10315;50.958;13.080;2023-11-22T18:27:45;33.83;;;13.03;;
20314;SDS011;10315;50.958;13.080;2023-11-22T18:37:48;32.13;;;11.30;;
20314;SDS011;10315;50.958;13.080;2023-11-22T18:47:50;27.90;;;11.53;;
20314;SDS011;10315;50.958;13.080;2023-11-22T18:57:54;33.43;;;13.63;;
20314;SDS011;10315;50.958;13.080;2023-11-22T19:07:56;30.77;;;12.50;;
20314;SDS011;10315;50.958;13.080;2023-11-22T19:17:59;30.93;;;11.23;;
20314;SDS011;10315;50.958;13.080;2023-11-22T19:28:01;32.67;;;13.80;;
20314;SDS011;10315;50.958;13.080;2023-11-22T19:38:05;34.73;;;13.93;;
20314;SDS011;10315;50.958;13.080;2023-11-22T19:48:08;32.60;;;11.67;;
20314;SDS011;10315;50.958;13.080;2023-11-22T19:58:11;35.63;;;14.57;;
20314;SDS011;10315;50.958;13.080;2023-11-22T20:08:13;29.90;;;11.67;;
20314;SDS011;10315;50.958;13.080;2023-11-22T20:18:16;29.93;;;11.50;;
20314;SDS011;10315;50.958;13.080;2023-11-22T20:28:18;33.53;;;11.40;;
20314;SDS011;10315;50.958;13.080;2023-11-22T20:38:21;25.00;;;9.37;;
20314;SDS011;10315;50.958;13.080;2023-11-22T20:48:22;27.13;;;9.93;;
20314;SDS011;10315;50.958;13.080;2023-11-22T20:58:25;17.37;;;6.87;;
20314;SDS011;10315;50.958;13.080;2023-11-22T21:08:27;25.67;;;9.30;;
20314;SDS011;10315;50.958;13.080;2023-11-22T21:18:30;22.43;;;7.83;;
20314;SDS011;10315;50.958;13.080;2023-11-22T21:28:32;16.17;;;7.10;;
20314;SDS011;10315;50.958;13.080;2023-11-22T21:38:35;17.20;;;8.03;;
20314;SDS011;10315;50.958;13.080;2023-11-22T21:48:37;20.87;;;8.00;;
20314;SDS011;10315;50.958;13.080;2023-11-22T21:58:40;14.97;;;6.37;;
20314;SDS011;10315;50.958;13.080;2023-11-22T22:08:42;16.23;;;6.97;;
20314;SDS011;10315;50.958;13.080;2023-11-22T22:18:45;14.17;;;7.70;;
20314;SDS011;10315;50.958;13.080;2023-11-22T22:28:46;14.97;;;7.07;;
20314;SDS011;10315;50.958;13.080;2023-11-22T22:38:49;8.37;;;5.07;;
20314;SDS011;10315;50.958;13.080;2023-11-22T22:48:51;13.43;;;5.67;;
20314;SDS011;10315;50.958;13.080;2023-11-22T22:58:54;16.67;;;6.57;;
20314;SDS011;10315;50.958;13.080;2023-11-22T23:08:55;15.53;;;6.73;;
20314;SDS011;10315;50.958;13.080;2023-11-22T23:18:59;13.53;;;7.13;;
20314;SDS011;10315;50.958;13.080;2023-11-22T23:29:00;9.70;;;5.23;;
20314;SDS011;10315;50.958;13.080;2023-11-22T23:39:03;13.37;;;5.93;;
20314;SDS011;10315;50.958;13.080;2023-11-22T23:49:05;13.17;;;6.47;;
20314;SDS011;10315;50.958;13.080;2023-11-22T23:59:08;14.53;;;5.70;;
